Woodstock, Ohio
Current Conditions -  °F | °C
As of 1:53 AM on Monday 24 Nov 2014 (Local Time) from KMRT Reporting Station
Overcast Overcast  
Wind Chill: 55°   Ceiling: 1000
Heat Index: 55°   Visibility: 7mi
Dew Point: 52°   Wind: 22mph
Humidity: 91%   Direction: 200°SSW
Pressure: 29.25"   Gusts: 29mph
Location:  40.17°N, 83.53°W
Report Text: KMRT 240653Z AUTO 20019G25KT 7SM BKN010 OVC014 13/11 A2925 RMK AO2 T01250110
Loading
Personal Weather Stations






























Interactive Weather Map New forecast layout! Learn more

10-Day Weather Forecast

Advertisements
Track Severe Weather on mobile